sensor_id;sensor_type;location;lat;lon;timestamp;P1;durP1;ratioP1;P2;durP2;ratioP2
35576;SDS011;21680;52.400;16.920;2022-09-13T00:01:05;19.52;;;11.78;;
35576;SDS011;21680;52.400;16.920;2022-09-13T00:03:32;20.70;;;11.83;;
35576;SDS011;21680;52.400;16.920;2022-09-13T00:06:05;18.25;;;11.18;;
35576;SDS011;21680;52.400;16.920;2022-09-13T00:08:38;16.87;;;10.48;;
35576;SDS011;21680;52.400;16.920;2022-09-13T00:11:05;20.43;;;10.28;;
35576;SDS011;21680;52.400;16.920;2022-09-13T00:13:32;19.85;;;10.68;;
35576;SDS011;21680;52.400;16.920;2022-09-13T00:15:58;16.77;;;10.43;;
35576;SDS011;21680;52.400;16.920;2022-09-13T00:18:25;17.20;;;10.13;;
35576;SDS011;21680;52.400;16.920;2022-09-13T00:21:02;21.07;;;10.82;;
35576;SDS011;21680;52.400;16.920;2022-09-13T00:23:28;17.20;;;10.98;;
35576;SDS011;21680;52.400;16.920;2022-09-13T00:26:05;19.42;;;11.35;;
35576;SDS011;21680;52.400;16.920;2022-09-13T00:28:34;17.10;;;12.00;;
35576;SDS011;21680;52.400;16.920;2022-09-13T00:31:01;19.20;;;12.23;;
35576;SDS011;21680;52.400;16.920;2022-09-13T00:33:30;20.40;;;11.70;;
35576;SDS011;21680;52.400;16.920;2022-09-13T00:35:56;19.02;;;12.63;;
35576;SDS011;21680;52.400;16.920;2022-09-13T00:38:22;20.10;;;11.80;;
35576;SDS011;21680;52.400;16.920;2022-09-13T00:40:48;17.80;;;10.53;;
35576;SDS011;21680;52.400;16.920;2022-09-13T00:43:18;21.15;;;11.90;;
35576;SDS011;21680;52.400;16.920;2022-09-13T00:45:45;17.35;;;11.50;;
35576;SDS011;21680;52.400;16.920;2022-09-13T00:48:17;18.98;;;11.15;;
35576;SDS011;21680;52.400;16.920;2022-09-13T00:50:50;21.45;;;11.63;;
35576;SDS011;21680;52.400;16.920;2022-09-13T00:53:21;20.57;;;11.10;;
35576;SDS011;21680;52.400;16.920;2022-09-13T00:55:57;23.87;;;11.38;;
35576;SDS011;21680;52.400;16.920;2022-09-13T00:58:38;18.85;;;10.35;;
35576;SDS011;21680;52.400;16.920;2022-09-13T01:01:08;15.95;;;10.32;;
35576;SDS011;21680;52.400;16.920;2022-09-13T01:03:37;18.00;;;10.45;;
35576;SDS011;21680;52.400;16.920;2022-09-13T01:06:06;19.85;;;12.00;;
35576;SDS011;21680;52.400;16.920;2022-09-13T01:08:39;17.37;;;11.05;;
35576;SDS011;21680;52.400;16.920;2022-09-13T01:11:09;22.25;;;12.00;;
35576;SDS011;21680;52.400;16.920;2022-09-13T01:13:39;20.30;;;12.58;;
35576;SDS011;21680;52.400;16.920;2022-09-13T01:16:06;18.90;;;12.28;;
35576;SDS011;21680;52.400;16.920;2022-09-13T01:18:33;18.75;;;11.53;;
35576;SDS011;21680;52.400;16.920;2022-09-13T01:24:01;19.98;;;11.90;;
35576;SDS011;21680;52.400;16.920;2022-09-13T01:32:10;16.48;;;10.65;;
35576;SDS011;21680;52.400;16.920;2022-09-13T01:37:56;26.12;;;12.05;;
35576;SDS011;21680;52.400;16.920;2022-09-13T01:40:50;20.32;;;11.83;;
35576;SDS011;21680;52.400;16.920;2022-09-13T01:46:27;19.92;;;12.10;;
35576;SDS011;21680;52.400;16.920;2022-09-13T01:52:06;19.98;;;11.43;;
35576;SDS011;21680;52.400;16.920;2022-09-13T02:00:03;19.98;;;13.98;;
35576;SDS011;21680;52.400;16.920;2022-09-13T02:08:31;19.10;;;13.68;;
35576;SDS011;21680;52.400;16.920;2022-09-13T02:11:12;20.23;;;12.93;;
35576;SDS011;21680;52.400;16.920;2022-09-13T02:14:05;21.27;;;14.45;;
35576;SDS011;21680;52.400;16.920;2022-09-13T02:16:45;24.45;;;14.23;;
35576;SDS011;21680;52.400;16.920;2022-09-13T02:19:47;26.93;;;15.85;;
35576;SDS011;21680;52.400;16.920;2022-09-13T02:22:16;21.95;;;15.53;;
35576;SDS011;21680;52.400;16.920;2022-09-13T02:24:47;20.32;;;15.38;;
35576;SDS011;21680;52.400;16.920;2022-09-13T02:29:49;23.38;;;15.98;;
35576;SDS011;21680;52.400;16.920;2022-09-13T02:37:28;25.50;;;16.00;;
35576;SDS011;21680;52.400;16.920;2022-09-13T02:40:00;21.02;;;15.25;;
35576;SDS011;21680;52.400;16.920;2022-09-13T02:42:37;22.45;;;14.90;;
35576;SDS011;21680;52.400;16.920;2022-09-13T02:45:08;21.42;;;15.10;;
35576;SDS011;21680;52.400;16.920;2022-09-13T02:47:38;24.90;;;16.10;;
35576;SDS011;21680;52.400;16.920;2022-09-13T02:53:25;23.75;;;16.10;;
35576;SDS011;21680;52.400;16.920;2022-09-13T03:01:25;24.63;;;15.38;;
35576;SDS011;21680;52.400;16.920;2022-09-13T03:03:52;23.20;;;15.32;;
35576;SDS011;21680;52.400;16.920;2022-09-13T03:06:22;21.75;;;14.25;;
35576;SDS011;21680;52.400;16.920;2022-09-13T03:08:51;21.93;;;14.00;;
35576;SDS011;21680;52.400;16.920;2022-09-13T03:11:35;21.25;;;14.45;;
35576;SDS011;21680;52.400;16.920;2022-09-13T03:14:28;24.95;;;15.85;;
35576;SDS011;21680;52.400;16.920;2022-09-13T03:17:13;21.45;;;13.90;;
35576;SDS011;21680;52.400;16.920;2022-09-13T03:20:05;22.73;;;14.83;;
35576;SDS011;21680;52.400;16.920;2022-09-13T03:25:51;27.93;;;16.25;;
35576;SDS011;21680;52.400;16.920;2022-09-13T03:34:22;24.40;;;14.25;;
35576;SDS011;21680;52.400;16.920;2022-09-13T03:40:16;25.40;;;14.13;;
35576;SDS011;21680;52.400;16.920;2022-09-13T03:42:52;25.00;;;13.93;;
35576;SDS011;21680;52.400;16.920;2022-09-13T03:45:32;20.82;;;13.13;;
35576;SDS011;21680;52.400;16.920;2022-09-13T03:48:03;17.87;;;13.55;;
35576;SDS011;21680;52.400;16.920;2022-09-13T03:50:31;26.95;;;15.23;;
35576;SDS011;21680;52.400;16.920;2022-09-13T03:53:06;20.05;;;13.70;;
35576;SDS011;21680;52.400;16.920;2022-09-13T03:55:31;23.65;;;12.15;;
35576;SDS011;21680;52.400;16.920;2022-09-13T03:57:59;18.23;;;12.80;;
35576;SDS011;21680;52.400;16.920;2022-09-13T04:00:25;16.50;;;12.88;;
35576;SDS011;21680;52.400;16.920;2022-09-13T04:02:51;20.55;;;12.78;;
35576;SDS011;21680;52.400;16.920;2022-09-13T04:05:17;18.07;;;12.95;;
35576;SDS011;21680;52.400;16.920;2022-09-13T04:07:43;21.33;;;13.65;;
35576;SDS011;21680;52.400;16.920;2022-09-13T04:10:08;17.15;;;13.08;;
35576;SDS011;21680;52.400;16.920;2022-09-13T04:12:34;25.20;;;12.75;;
35576;SDS011;21680;52.400;16.920;2022-09-13T04:15:00;22.35;;;12.60;;
35576;SDS011;21680;52.400;16.920;2022-09-13T04:17:26;24.30;;;12.90;;
35576;SDS011;21680;52.400;16.920;2022-09-13T04:19:52;21.12;;;13.53;;
35576;SDS011;21680;52.400;16.920;2022-09-13T04:22:17;18.37;;;12.40;;
35576;SDS011;21680;52.400;16.920;2022-09-13T04:24:43;21.97;;;12.85;;
35576;SDS011;21680;52.400;16.920;2022-09-13T04:27:09;17.42;;;13.38;;
35576;SDS011;21680;52.400;16.920;2022-09-13T04:29:37;24.80;;;14.10;;
35576;SDS011;21680;52.400;16.920;2022-09-13T04:32:02;24.07;;;14.20;;
35576;SDS011;21680;52.400;16.920;2022-09-13T04:34:28;22.05;;;13.03;;
35576;SDS011;21680;52.400;16.920;2022-09-13T04:36:54;18.07;;;13.45;;
35576;SDS011;21680;52.400;16.920;2022-09-13T04:39:20;17.92;;;13.48;;
35576;SDS011;21680;52.400;16.920;2022-09-13T04:41:47;22.40;;;12.80;;
35576;SDS011;21680;52.400;16.920;2022-09-13T04:44:15;21.05;;;13.03;;
35576;SDS011;21680;52.400;16.920;2022-09-13T04:46:44;19.62;;;13.38;;
35576;SDS011;21680;52.400;16.920;2022-09-13T04:49:14;18.70;;;14.55;;
35576;SDS011;21680;52.400;16.920;2022-09-13T04:51:41;16.37;;;12.78;;
35576;SDS011;21680;52.400;16.920;2022-09-13T04:54:07;20.75;;;12.93;;
35576;SDS011;21680;52.400;16.920;2022-09-13T04:56:35;22.32;;;12.65;;
35576;SDS011;21680;52.400;16.920;2022-09-13T04:59:01;18.98;;;12.90;;
35576;SDS011;21680;52.400;16.920;2022-09-13T05:01:27;16.85;;;12.05;;
35576;SDS011;21680;52.400;16.920;2022-09-13T05:03:54;20.20;;;13.22;;
35576;SDS011;21680;52.400;16.920;2022-09-13T05:06:20;21.00;;;12.50;;
35576;SDS011;21680;52.400;16.920;2022-09-13T05:08:50;22.75;;;12.90;;
35576;SDS011;21680;52.400;16.920;2022-09-13T05:11:20;21.82;;;12.30;;
35576;SDS011;21680;52.400;16.920;2022-09-13T05:13:48;21.15;;;12.25;;
35576;SDS011;21680;52.400;16.920;2022-09-13T05:16:26;21.48;;;12.45;;
35576;SDS011;21680;52.400;16.920;2022-09-13T05:18:55;15.00;;;11.35;;
35576;SDS011;21680;52.400;16.920;2022-09-13T05:21:22;22.22;;;12.95;;
35576;SDS011;21680;52.400;16.920;2022-09-13T05:23:48;20.90;;;12.58;;
35576;SDS011;21680;52.400;16.920;2022-09-13T05:26:16;22.22;;;13.05;;
35576;SDS011;21680;52.400;16.920;2022-09-13T05:28:42;20.43;;;12.25;;
35576;SDS011;21680;52.400;16.920;2022-09-13T05:31:11;17.75;;;11.38;;
35576;SDS011;21680;52.400;16.920;2022-09-13T05:33:43;20.75;;;12.28;;
35576;SDS011;21680;52.400;16.920;2022-09-13T05:36:10;17.07;;;11.15;;
35576;SDS011;21680;52.400;16.920;2022-09-13T05:38:36;20.40;;;12.50;;
35576;SDS011;21680;52.400;16.920;2022-09-13T05:41:02;18.07;;;11.68;;
35576;SDS011;21680;52.400;16.920;2022-09-13T05:43:31;16.42;;;11.40;;
35576;SDS011;21680;52.400;16.920;2022-09-13T05:46:00;18.77;;;11.57;;
35576;SDS011;21680;52.400;16.920;2022-09-13T05:48:33;14.43;;;11.63;;
35576;SDS011;21680;52.400;16.920;2022-09-13T05:51:05;16.48;;;11.80;;
35576;SDS011;21680;52.400;16.920;2022-09-13T05:53:33;15.48;;;11.35;;
35576;SDS011;21680;52.400;16.920;2022-09-13T05:56:02;20.17;;;11.93;;
35576;SDS011;21680;52.400;16.920;2022-09-13T05:58:28;16.50;;;10.85;;
35576;SDS011;21680;52.400;16.920;2022-09-13T06:00:54;20.50;;;11.35;;
35576;SDS011;21680;52.400;16.920;2022-09-13T06:03:22;16.57;;;11.22;;
35576;SDS011;21680;52.400;16.920;2022-09-13T06:05:48;15.08;;;9.75;;
35576;SDS011;21680;52.400;16.920;2022-09-13T06:08:16;19.20;;;11.95;;
35576;SDS011;21680;52.400;16.920;2022-09-13T06:10:41;21.75;;;12.60;;
35576;SDS011;21680;52.400;16.920;2022-09-13T06:13:08;19.17;;;11.97;;
35576;SDS011;21680;52.400;16.920;2022-09-13T06:15:33;18.90;;;11.53;;
35576;SDS011;21680;52.400;16.920;2022-09-13T06:17:59;17.77;;;11.55;;
35576;SDS011;21680;52.400;16.920;2022-09-13T06:20:25;18.50;;;11.43;;
35576;SDS011;21680;52.400;16.920;2022-09-13T06:22:50;16.65;;;11.08;;
35576;SDS011;21680;52.400;16.920;2022-09-13T06:25:16;18.23;;;11.45;;
35576;SDS011;21680;52.400;16.920;2022-09-13T06:27:42;18.15;;;12.07;;
35576;SDS011;21680;52.400;16.920;2022-09-13T06:30:07;16.93;;;11.95;;
35576;SDS011;21680;52.400;16.920;2022-09-13T06:32:35;18.15;;;11.35;;
35576;SDS011;21680;52.400;16.920;2022-09-13T06:35:01;17.10;;;10.65;;
35576;SDS011;21680;52.400;16.920;2022-09-13T06:37:27;17.12;;;11.80;;
35576;SDS011;21680;52.400;16.920;2022-09-13T06:39:53;17.02;;;11.63;;
35576;SDS011;21680;52.400;16.920;2022-09-13T06:42:18;17.52;;;11.28;;
35576;SDS011;21680;52.400;16.920;2022-09-13T06:44:44;19.17;;;13.75;;
35576;SDS011;21680;52.400;16.920;2022-09-13T06:47:10;19.02;;;10.85;;
35576;SDS011;21680;52.400;16.920;2022-09-13T06:49:37;25.50;;;11.08;;
35576;SDS011;21680;52.400;16.920;2022-09-13T06:52:03;22.70;;;11.55;;
35576;SDS011;21680;52.400;16.920;2022-09-13T06:54:29;17.77;;;10.30;;
35576;SDS011;21680;52.400;16.920;2022-09-13T06:56:55;19.40;;;11.18;;
35576;SDS011;21680;52.400;16.920;2022-09-13T06:59:21;15.18;;;10.48;;
35576;SDS011;21680;52.400;16.920;2022-09-13T07:01:47;20.12;;;11.50;;
35576;SDS011;21680;52.400;16.920;2022-09-13T07:04:14;21.20;;;10.25;;
35576;SDS011;21680;52.400;16.920;2022-09-13T07:06:44;14.25;;;9.70;;
35576;SDS011;21680;52.400;16.920;2022-09-13T07:09:13;15.65;;;11.12;;
35576;SDS011;21680;52.400;16.920;2022-09-13T07:11:42;16.97;;;11.20;;
35576;SDS011;21680;52.400;16.920;2022-09-13T07:14:13;16.75;;;11.33;;
35576;SDS011;21680;52.400;16.920;2022-09-13T07:16:42;16.62;;;10.25;;
35576;SDS011;21680;52.400;16.920;2022-09-13T07:19:14;15.80;;;10.55;;
35576;SDS011;21680;52.400;16.920;2022-09-13T07:21:42;16.95;;;9.78;;
35576;SDS011;21680;52.400;16.920;2022-09-13T07:24:09;24.40;;;10.48;;
35576;SDS011;21680;52.400;16.920;2022-09-13T07:26:34;13.98;;;10.18;;
35576;SDS011;21680;52.400;16.920;2022-09-13T07:29:02;16.52;;;9.50;;
35576;SDS011;21680;52.400;16.920;2022-09-13T07:31:34;17.15;;;9.65;;
35576;SDS011;21680;52.400;16.920;2022-09-13T07:34:05;13.18;;;9.58;;
35576;SDS011;21680;52.400;16.920;2022-09-13T07:36:34;15.40;;;9.40;;
35576;SDS011;21680;52.400;16.920;2022-09-13T07:39:01;12.03;;;8.48;;
35576;SDS011;21680;52.400;16.920;2022-09-13T07:41:29;12.63;;;9.23;;
35576;SDS011;21680;52.400;16.920;2022-09-13T07:43:57;13.70;;;8.70;;
35576;SDS011;21680;52.400;16.920;2022-09-13T07:46:25;17.23;;;9.65;;
35576;SDS011;21680;52.400;16.920;2022-09-13T07:51:23;15.28;;;8.73;;
35576;SDS011;21680;52.400;16.920;2022-09-13T07:53:53;16.10;;;9.15;;
35576;SDS011;21680;52.400;16.920;2022-09-13T07:56:23;16.75;;;8.45;;
35576;SDS011;21680;52.400;16.920;2022-09-13T07:59:02;15.40;;;8.73;;
35576;SDS011;21680;52.400;16.920;2022-09-13T08:04:10;14.28;;;8.33;;
35576;SDS011;21680;52.400;16.920;2022-09-13T08:06:35;12.20;;;7.40;;
35576;SDS011;21680;52.400;16.920;2022-09-13T08:46:32;9.90;;;4.20;;
35576;SDS011;21680;52.400;16.920;2022-09-13T08:48:59;6.30;;;3.90;;
35576;SDS011;21680;52.400;16.920;2022-09-13T09:04:25;7.30;;;4.60;;
35576;SDS011;21680;52.400;16.920;2022-09-13T09:07:01;10.10;;;4.60;;
35576;SDS011;21680;52.400;16.920;2022-09-13T09:09:35;7.00;;;5.10;;
35576;SDS011;21680;52.400;16.920;2022-09-13T09:12:32;7.70;;;4.70;;
35576;SDS011;21680;52.400;16.920;2022-09-13T09:15:16;9.70;;;4.80;;
35576;SDS011;21680;52.400;16.920;2022-09-13T09:17:59;7.10;;;5.20;;
35576;SDS011;21680;52.400;16.920;2022-09-13T09:20:39;12.40;;;5.50;;
35576;SDS011;21680;52.400;16.920;2022-09-13T09:23:12;7.60;;;5.30;;
35576;SDS011;21680;52.400;16.920;2022-09-13T09:25:41;5.60;;;4.90;;
35576;SDS011;21680;52.400;16.920;2022-09-13T09:28:10;6.80;;;5.10;;
35576;SDS011;21680;52.400;16.920;2022-09-13T09:30:40;6.70;;;4.60;;
35576;SDS011;21680;52.400;16.920;2022-09-13T09:33:19;7.70;;;5.80;;
35576;SDS011;21680;52.400;16.920;2022-09-13T09:38:54;7.70;;;5.30;;
35576;SDS011;21680;52.400;16.920;2022-09-13T09:46:32;15.00;;;5.50;;
35576;SDS011;21680;52.400;16.920;2022-09-13T09:49:02;8.70;;;5.70;;
35576;SDS011;21680;52.400;16.920;2022-09-13T09:51:56;10.90;;;5.50;;
35576;SDS011;21680;52.400;16.920;2022-09-13T09:54:24;10.50;;;5.60;;
35576;SDS011;21680;52.400;16.920;2022-09-13T09:56:52;10.30;;;5.90;;
35576;SDS011;21680;52.400;16.920;2022-09-13T09:59:26;8.40;;;5.60;;
35576;SDS011;21680;52.400;16.920;2022-09-13T10:01:56;9.00;;;6.30;;
35576;SDS011;21680;52.400;16.920;2022-09-13T10:04:22;7.70;;;5.40;;
35576;SDS011;21680;52.400;16.920;2022-09-13T10:06:48;9.00;;;5.70;;
35576;SDS011;21680;52.400;16.920;2022-09-13T10:09:19;10.00;;;6.50;;
35576;SDS011;21680;52.400;16.920;2022-09-13T10:11:52;9.90;;;6.60;;
35576;SDS011;21680;52.400;16.920;2022-09-13T10:17:15;9.80;;;6.60;;
35576;SDS011;21680;52.400;16.920;2022-09-13T10:19:50;11.60;;;6.80;;
35576;SDS011;21680;52.400;16.920;2022-09-13T10:22:18;9.20;;;6.30;;
35576;SDS011;21680;52.400;16.920;2022-09-13T10:24:44;12.80;;;7.20;;
35576;SDS011;21680;52.400;16.920;2022-09-13T10:27:23;14.50;;;6.70;;
35576;SDS011;21680;52.400;16.920;2022-09-13T10:32:56;21.50;;;7.50;;
35576;SDS011;21680;52.400;16.920;2022-09-13T10:35:22;13.80;;;6.60;;
35576;SDS011;21680;52.400;16.920;2022-09-13T10:37:48;13.70;;;7.00;;
35576;SDS011;21680;52.400;16.920;2022-09-13T10:40:17;11.60;;;6.50;;
35576;SDS011;21680;52.400;16.920;2022-09-13T10:43:11;11.50;;;6.70;;
35576;SDS011;21680;52.400;16.920;2022-09-13T10:45:40;10.00;;;6.70;;
35576;SDS011;21680;52.400;16.920;2022-09-13T10:48:11;10.90;;;6.70;;
35576;SDS011;21680;52.400;16.920;2022-09-13T10:50:40;13.00;;;6.80;;
35576;SDS011;21680;52.400;16.920;2022-09-13T10:53:37;9.50;;;6.50;;
35576;SDS011;21680;52.400;16.920;2022-09-13T10:56:04;18.10;;;7.00;;
35576;SDS011;21680;52.400;16.920;2022-09-13T10:58:43;9.00;;;6.20;;
35576;SDS011;21680;52.400;16.920;2022-09-13T11:04:01;15.00;;;6.70;;
35576;SDS011;21680;52.400;16.920;2022-09-13T11:07:03;11.70;;;7.30;;
35576;SDS011;21680;52.400;16.920;2022-09-13T11:09:34;10.40;;;6.70;;
35576;SDS011;21680;52.400;16.920;2022-09-13T11:12:17;10.60;;;5.80;;
35576;SDS011;21680;52.400;16.920;2022-09-13T11:14:53;10.80;;;6.40;;
35576;SDS011;21680;52.400;16.920;2022-09-13T11:20:21;8.60;;;5.70;;
35576;SDS011;21680;52.400;16.920;2022-09-13T11:25:37;14.80;;;6.50;;
35576;SDS011;21680;52.400;16.920;2022-09-13T11:33:22;11.00;;;6.50;;
35576;SDS011;21680;52.400;16.920;2022-09-13T11:47:57;12.60;;;6.20;;
35576;SDS011;21680;52.400;16.920;2022-09-13T11:53:18;11.90;;;8.60;;
35576;SDS011;21680;52.400;16.920;2022-09-13T11:56:02;11.60;;;6.30;;
35576;SDS011;21680;52.400;16.920;2022-09-13T11:58:34;10.50;;;7.10;;
35576;SDS011;21680;52.400;16.920;2022-09-13T12:01:05;9.40;;;6.00;;
35576;SDS011;21680;52.400;16.920;2022-09-13T12:06:17;8.80;;;6.50;;
35576;SDS011;21680;52.400;16.920;2022-09-13T12:08:49;10.20;;;7.10;;
35576;SDS011;21680;52.400;16.920;2022-09-13T12:11:23;12.20;;;7.80;;
35576;SDS011;21680;52.400;16.920;2022-09-13T12:13:59;13.00;;;9.10;;
35576;SDS011;21680;52.400;16.920;2022-09-13T12:16:29;17.10;;;8.60;;
35576;SDS011;21680;52.400;16.920;2022-09-13T12:19:02;10.30;;;7.50;;
35576;SDS011;21680;52.400;16.920;2022-09-13T12:21:50;11.20;;;7.00;;
35576;SDS011;21680;52.400;16.920;2022-09-13T12:30:05;13.40;;;6.30;;
35576;SDS011;21680;52.400;16.920;2022-09-13T12:32:38;15.90;;;7.40;;
35576;SDS011;21680;52.400;16.920;2022-09-13T12:35:04;11.60;;;6.80;;
35576;SDS011;21680;52.400;16.920;2022-09-13T12:37:41;10.20;;;6.80;;
35576;SDS011;21680;52.400;16.920;2022-09-13T12:43:37;10.60;;;7.30;;
35576;SDS011;21680;52.400;16.920;2022-09-13T12:46:20;12.50;;;6.30;;
35576;SDS011;21680;52.400;16.920;2022-09-13T12:54:58;9.50;;;6.60;;
35576;SDS011;21680;52.400;16.920;2022-09-13T13:00:21;8.00;;;5.90;;
35576;SDS011;21680;52.400;16.920;2022-09-13T13:05:43;8.20;;;5.20;;
35576;SDS011;21680;52.400;16.920;2022-09-13T13:14:02;12.10;;;6.40;;
35576;SDS011;21680;52.400;16.920;2022-09-13T13:16:34;15.80;;;6.20;;
35576;SDS011;21680;52.400;16.920;2022-09-13T13:19:02;16.10;;;6.20;;
35576;SDS011;21680;52.400;16.920;2022-09-13T13:21:48;11.90;;;5.90;;
35576;SDS011;21680;52.400;16.920;2022-09-13T13:29:12;10.00;;;5.70;;
35576;SDS011;21680;52.400;16.920;2022-09-13T13:36:57;7.60;;;5.00;;
35576;SDS011;21680;52.400;16.920;2022-09-13T13:41:54;8.90;;;6.10;;
35576;SDS011;21680;52.400;16.920;2022-09-13T13:52:33;9.80;;;5.40;;
35576;SDS011;21680;52.400;16.920;2022-09-13T13:58:25;10.90;;;5.40;;
35576;SDS011;21680;52.400;16.920;2022-09-13T14:00:54;8.10;;;4.50;;
35576;SDS011;21680;52.400;16.920;2022-09-13T14:03:25;9.30;;;5.30;;
35576;SDS011;21680;52.400;16.920;2022-09-13T14:06:04;6.50;;;4.70;;
35576;SDS011;21680;52.400;16.920;2022-09-13T14:08:43;12.40;;;5.60;;
35576;SDS011;21680;52.400;16.920;2022-09-13T14:16:58;9.20;;;4.50;;
35576;SDS011;21680;52.400;16.920;2022-09-13T14:19:45;8.90;;;4.80;;
35576;SDS011;21680;52.400;16.920;2022-09-13T14:22:23;12.40;;;4.90;;
35576;SDS011;21680;52.400;16.920;2022-09-13T14:24:57;6.70;;;5.40;;
35576;SDS011;21680;52.400;16.920;2022-09-13T14:27:36;8.80;;;5.00;;
35576;SDS011;21680;52.400;16.920;2022-09-13T14:30:16;10.10;;;5.60;;
35576;SDS011;21680;52.400;16.920;2022-09-13T14:32:43;7.70;;;5.30;;
35576;SDS011;21680;52.400;16.920;2022-09-13T14:38:08;12.30;;;6.30;;
35576;SDS011;21680;52.400;16.920;2022-09-13T14:40:46;7.90;;;6.20;;
35576;SDS011;21680;52.400;16.920;2022-09-13T14:43:14;10.10;;;6.70;;
35576;SDS011;21680;52.400;16.920;2022-09-13T14:45:45;10.20;;;6.20;;
35576;SDS011;21680;52.400;16.920;2022-09-13T14:48:18;10.10;;;6.70;;
35576;SDS011;21680;52.400;16.920;2022-09-13T14:50:49;11.90;;;7.10;;
35576;SDS011;21680;52.400;16.920;2022-09-13T14:53:25;8.80;;;7.20;;
35576;SDS011;21680;52.400;16.920;2022-09-13T14:55:54;10.90;;;6.50;;
35576;SDS011;21680;52.400;16.920;2022-09-13T15:01:27;8.30;;;6.10;;
35576;SDS011;21680;52.400;16.920;2022-09-13T15:03:56;12.00;;;7.30;;
35576;SDS011;21680;52.400;16.920;2022-09-13T15:06:25;10.80;;;5.50;;
35576;SDS011;21680;52.400;16.920;2022-09-13T15:09:45;10.20;;;7.00;;
35576;SDS011;21680;52.400;16.920;2022-09-13T15:14:33;9.20;;;5.90;;
35576;SDS011;21680;52.400;16.920;2022-09-13T15:19:39;10.00;;;7.20;;
35576;SDS011;21680;52.400;16.920;2022-09-13T15:22:17;8.80;;;6.90;;
35576;SDS011;21680;52.400;16.920;2022-09-13T15:24:58;10.00;;;6.20;;
35576;SDS011;21680;52.400;16.920;2022-09-13T15:27:58;10.60;;;6.40;;
35576;SDS011;21680;52.400;16.920;2022-09-13T15:30:30;10.50;;;6.50;;
35576;SDS011;21680;52.400;16.920;2022-09-13T15:33:03;9.90;;;6.40;;
35576;SDS011;21680;52.400;16.920;2022-09-13T15:35:39;9.00;;;5.90;;
35576;SDS011;21680;52.400;16.920;2022-09-13T15:38:21;11.00;;;6.70;;
35576;SDS011;21680;52.400;16.920;2022-09-13T15:40:59;10.10;;;5.90;;
35576;SDS011;21680;52.400;16.920;2022-09-13T15:43:28;13.40;;;7.30;;
35576;SDS011;21680;52.400;16.920;2022-09-13T15:45:55;10.20;;;6.80;;
35576;SDS011;21680;52.400;16.920;2022-09-13T15:48:24;8.60;;;5.60;;
35576;SDS011;21680;52.400;16.920;2022-09-13T15:51:02;8.50;;;6.10;;
35576;SDS011;21680;52.400;16.920;2022-09-13T15:53:30;10.20;;;6.90;;
35576;SDS011;21680;52.400;16.920;2022-09-13T15:55:55;9.90;;;6.90;;
35576;SDS011;21680;52.400;16.920;2022-09-13T15:58:20;7.80;;;6.80;;
35576;SDS011;21680;52.400;16.920;2022-09-13T16:00:46;12.90;;;7.70;;
35576;SDS011;21680;52.400;16.920;2022-09-13T16:03:11;15.30;;;7.90;;
35576;SDS011;21680;52.400;16.920;2022-09-13T16:05:36;11.50;;;7.50;;
35576;SDS011;21680;52.400;16.920;2022-09-13T16:08:01;11.90;;;8.00;;
35576;SDS011;21680;52.400;16.920;2022-09-13T16:10:26;9.70;;;8.50;;
35576;SDS011;21680;52.400;16.920;2022-09-13T16:12:52;12.00;;;8.30;;
35576;SDS011;21680;52.400;16.920;2022-09-13T16:15:18;13.00;;;9.30;;
35576;SDS011;21680;52.400;16.920;2022-09-13T16:17:44;13.80;;;10.40;;
35576;SDS011;21680;52.400;16.920;2022-09-13T16:20:10;14.60;;;10.30;;
35576;SDS011;21680;52.400;16.920;2022-09-13T16:22:37;15.40;;;10.70;;
35576;SDS011;21680;52.400;16.920;2022-09-13T16:25:03;13.80;;;9.80;;
35576;SDS011;21680;52.400;16.920;2022-09-13T16:27:28;14.00;;;11.30;;
35576;SDS011;21680;52.400;16.920;2022-09-13T16:29:54;14.80;;;10.20;;
35576;SDS011;21680;52.400;16.920;2022-09-13T16:32:19;16.30;;;11.60;;
35576;SDS011;21680;52.400;16.920;2022-09-13T16:34:45;15.50;;;10.40;;
35576;SDS011;21680;52.400;16.920;2022-09-13T16:37:12;20.60;;;11.00;;
35576;SDS011;21680;52.400;16.920;2022-09-13T16:39:39;20.90;;;10.70;;
35576;SDS011;21680;52.400;16.920;2022-09-13T16:42:05;18.60;;;12.00;;
35576;SDS011;21680;52.400;16.920;2022-09-13T16:44:30;16.60;;;11.40;;
35576;SDS011;21680;52.400;16.920;2022-09-13T16:46:55;17.10;;;11.90;;
35576;SDS011;21680;52.400;16.920;2022-09-13T16:49:21;19.50;;;12.10;;
35576;SDS011;21680;52.400;16.920;2022-09-13T16:51:46;14.80;;;10.90;;
35576;SDS011;21680;52.400;16.920;2022-09-13T16:54:11;18.80;;;11.50;;
35576;SDS011;21680;52.400;16.920;2022-09-13T16:56:36;18.90;;;13.40;;
35576;SDS011;21680;52.400;16.920;2022-09-13T16:59:02;21.00;;;12.90;;
35576;SDS011;21680;52.400;16.920;2022-09-13T17:01:28;17.70;;;12.20;;
35576;SDS011;21680;52.400;16.920;2022-09-13T17:03:53;19.20;;;13.10;;
35576;SDS011;21680;52.400;16.920;2022-09-13T17:06:19;18.80;;;12.50;;
35576;SDS011;21680;52.400;16.920;2022-09-13T17:08:47;19.60;;;13.60;;
35576;SDS011;21680;52.400;16.920;2022-09-13T17:11:19;18.00;;;13.40;;
35576;SDS011;21680;52.400;16.920;2022-09-13T17:13:47;19.90;;;13.30;;
35576;SDS011;21680;52.400;16.920;2022-09-13T17:16:20;20.70;;;13.60;;
35576;SDS011;21680;52.400;16.920;2022-09-13T17:18:49;16.30;;;11.60;;
35576;SDS011;21680;52.400;16.920;2022-09-13T17:21:15;18.90;;;13.50;;
35576;SDS011;21680;52.400;16.920;2022-09-13T17:23:41;19.20;;;14.10;;
35576;SDS011;21680;52.400;16.920;2022-09-13T17:26:06;20.20;;;13.80;;
35576;SDS011;21680;52.400;16.920;2022-09-13T17:28:31;19.50;;;14.00;;
35576;SDS011;21680;52.400;16.920;2022-09-13T17:30:59;21.50;;;12.80;;
35576;SDS011;21680;52.400;16.920;2022-09-13T17:33:25;15.80;;;12.70;;
35576;SDS011;21680;52.400;16.920;2022-09-13T17:35:57;20.90;;;14.10;;
35576;SDS011;21680;52.400;16.920;2022-09-13T17:38:34;19.90;;;13.20;;
35576;SDS011;21680;52.400;16.920;2022-09-13T17:43:29;19.80;;;13.40;;
35576;SDS011;21680;52.400;16.920;2022-09-13T17:45:55;20.50;;;12.70;;
35576;SDS011;21680;52.400;16.920;2022-09-13T17:48:20;18.50;;;13.70;;
35576;SDS011;21680;52.400;16.920;2022-09-13T17:50:46;18.80;;;13.60;;
35576;SDS011;21680;52.400;16.920;2022-09-13T17:53:11;19.00;;;14.10;;
35576;SDS011;21680;52.400;16.920;2022-09-13T17:55:44;21.40;;;13.90;;
35576;SDS011;21680;52.400;16.920;2022-09-13T17:58:10;18.70;;;14.00;;
35576;SDS011;21680;52.400;16.920;2022-09-13T18:00:35;25.50;;;15.10;;
35576;SDS011;21680;52.400;16.920;2022-09-13T18:03:01;23.20;;;15.00;;
35576;SDS011;21680;52.400;16.920;2022-09-13T18:05:26;22.60;;;14.60;;
35576;SDS011;21680;52.400;16.920;2022-09-13T18:07:51;21.20;;;14.20;;
35576;SDS011;21680;52.400;16.920;2022-09-13T18:10:16;20.70;;;14.20;;
35576;SDS011;21680;52.400;16.920;2022-09-13T18:12:42;21.80;;;14.70;;
35576;SDS011;21680;52.400;16.920;2022-09-13T18:15:07;17.80;;;13.00;;
35576;SDS011;21680;52.400;16.920;2022-09-13T18:17:33;23.40;;;15.00;;
35576;SDS011;21680;52.400;16.920;2022-09-13T18:19:58;23.10;;;15.40;;
35576;SDS011;21680;52.400;16.920;2022-09-13T18:22:24;22.00;;;15.00;;
35576;SDS011;21680;52.400;16.920;2022-09-13T18:24:50;20.90;;;15.00;;